Go Pro

Roblox (RBLX) Institutional Ownership

Roblox logo
$43.21 +1.70 (+4.10%)
As of 03:58 PM Eastern

Institutional Ownership Changes (13F Filings) for Roblox (NYSE:RBLX)

Current
Institutional Ownership
Percentage
94.46%
Number of
Institutional Buyers
(last 12 months)
622
Total
Institutional Inflows
(last 12 months)
$8.55B
Number of
Institutional Sellers
(last 12 months)
380
Total
Institutional Outflows
(last 12 months)
$5.96B
Get RBLX Insider Trade Alerts

Want to know when executives and insiders are buying or selling Roblox stock? Sign up for InsiderTrades.com's daily newsletter to get the latest insider transactions delivered to your inbox daily.

SMS is currently available in Australia, Belgium, Canada, France, Germany, Ireland, Italy, New Zealand, the Netherlands, Singapore, South Africa, Spain, Switzerland, the United Kingdom, and the United States. By entering your phone number and clicking the sign-up button, you agree to receive periodic text messages from MarketBeat at the phone number you submitted, including texts that may be sent using an automatic telephone dialing system. Message and data rates may apply. Message frequency will vary. Messages will consist of stock alerts, news stories, and partner advertisements/offers. Consent is not a condition of the purchase of any goods or services. Text HELP for help/customer support. Unsubscribe at any time by replying "STOP" to any text message that you receive from MarketBeat or by visiting our mailing preferences page. Read our full terms of service and privacy policy.
Skip Chart & View Institutional Buying and Selling Data

RBLX Institutional Buying and Selling by Quarter

Roblox Major Shareholders & Ownership History

Reporting DateMajor Shareholder NameShares HeldMarket Value% of PortfolioQuarterly Change in SharesOwnership in CompanyDetails
9/4/2026Parkside Financial Bank & Trust1,094$59K0.0%+189.4%0.000%
8/27/2026 Corient Private Wealth LP37,298$2.03M0.0%+99.3%0.006%
8/24/2026 California State Teachers Retirement System49,445,613$2.69B0.0%+5,370.1%7.380%
8/23/2026 Readystate Asset Management LP377,201$20.51M0.7%+685.8%0.056%
8/23/2026 Wedmont Private Capital11,812$654K0.0%-18.5%0.002%
8/23/2026 HB Wealth Management LLC19,542$1.06M0.0%+24.5%0.003%
8/23/2026 Saudi Central Bank41,683$2.27M0.0%+91.6%0.006%
8/23/2026 Angeles Wealth Management LLC16,831$915K0.0%N/A0.003%
8/22/2026 AlphaGrep UK Ltd5,870$319K0.1%N/A0.001%
8/22/2026 OceanIQ Capital LLC5,651$307K0.2%N/A0.001%
8/22/2026 Odyssean LLC40,038$2.18M0.4%+344.4%0.006%
8/22/2026 Raiffeisen Bank International AG62,151$3.38M0.0%+14.2%0.009%
8/22/2026 Syon Capital LLC366,889$19.95M0.9%-0.2%0.055%
8/22/2026 TD Waterhouse Canada Inc.948$55K0.0%-68.3%0.000%
8/22/2026 Concurrent Investment Advisors LLC9,419$512K0.0%-45.7%0.001%
8/21/2026 AXQ Capital LP70,329$3.82M0.4%+11.9%0.010%
8/21/2026 Nykredit A S244,331$13.29M0.0%N/A0.036%
8/21/2026 Resolute Advisors LLC144,915$7.88M1.9%-3.8%0.022%
8/20/2026 Proficio Capital Partners LLC6,116$333K0.0%N/A0.001%
8/20/2026 Quantitative Investment Management LLC21,327$1.16M0.1%-78.3%0.003%
8/18/2026 Livforsakringsbolaget Skandia Omsesidigt3,700$201K0.0%N/A0.001%
8/18/2026 Public Employees Retirement System of Ohio181,051$9.85M0.0%N/A0.027%
8/15/2026 Kinetic Partners Management LP120,800$6.57M0.2%N/A0.018%
8/6/2026 S&CO Inc.16,940$921K0.1%N/A0.003%
7/10/2026 Stonekeep Investments LLC9,070$493K0.3%+2.4%0.001%
7/10/2026 Handelsbanken Fonder AB177,250$9.64M0.0%-38.1%0.026%
7/10/2026 Redhawk Wealth Advisors Inc.4,152$226K0.0%N/A0.001%
7/10/2026 Wealthcare Advisory Partners LLC30,034$1.63M0.0%+13.2%0.004%
7/9/2026 Chemistry Wealth Management LLC17,265$939K0.2%+27.1%0.003%
7/9/2026 Polianta Ltd42,100$2.29M0.3%+56.5%0.006%
7/8/2026 PensionDanmark Pensionsforsikringsaktieselskab130,130$7.08M0.1%+35.5%0.019%
7/8/2026 Mirabaud & Cie SA7,100$386K0.2%N/A0.001%
7/8/2026 Assenagon Asset Management S.A.1,893,790$102.98M0.1%+89.0%0.282%
7/8/2026 Thrive Wealth Management LLC7,536$410K0.1%-3.5%0.001%
7/7/2026 GAMMA Investing LLC3,191$174K0.0%+12.6%0.000%
7/7/2026 Grant Private Wealth Management Inc4,820$262K0.1%-9.4%0.001%
7/2/2026 MassMutual Private Wealth & Trust FSB584$32K0.0%-26.4%0.000%
7/2/2026 Versant Capital Management Inc1,536$84K0.0%+27.2%0.000%
7/2/2026 CX Institutional1,213$66K0.0%+183.4%0.000%
6/24/2026 Basecamp Wealth Advisors LLC507$29K0.0%+98.8%0.000%
Wall Street pays $32K for this type of stock market data. (But see this Labor Day deal now!) (Ad)

The Bloomberg Terminal costs $32,000 a year and sits on the desks of more than 350,000 Wall Street traders. Most everyday investors never get that kind of access. A different stock rating system, examined in a Wall Street Journal study, outperformed Deutsche Bank, Merrill Lynch, JPMorgan Chase, and Goldman Sachs. Stocks it rates Buy have averaged a 303% gain, including winners and losers. This Labor Day weekend, get a full year of access for just $49 - an 89% discount. The offer disappears Monday at 11:59pm Eastern.tc pixel

Get the full details on this stock rating system now
6/18/2026 Pacer Advisors Inc.1,948$110K0.0%-98.1%0.000%
6/12/2026 Militia Capital Management LLC45,800$2.59M0.6%N/A0.007%
6/9/2026 Rathbones Group PLC14,015$793K0.0%+302.2%0.002%
6/3/2026 Parallel Advisors LLC31,160$1.76M0.0%+9.5%0.005%
6/3/2026 NewEdge Advisors LLC14,315$810K0.0%-13.0%0.002%
5/22/2026 Evolutionary Tree Capital Management LLC24,293$1.37M2.6%-27.3%0.004%
5/21/2026 Essential Partners LLC5,319$301K0.1%-85.9%0.001%
5/19/2026 Western Wealth Management LLC591$33K0.0%N/A0.000%
5/19/2026Silicon Valley Capital Partners31,155$1.76M0.2%-30.3%0.005%
5/19/2026 Bank of America Corp DE2,353,704$133.13M0.0%-28.8%0.350%
5/19/2026 Edgestream Partners L.P.25,980$1.47M0.0%-74.4%0.004%
5/19/2026Janus Henderson Group PLC54,827$3.10M0.0%-24.2%0.008%
5/19/2026 Bull Harbor Capital LLC11,514$651K0.2%N/A0.002%
5/19/2026 Arkadios Wealth Advisors21,008$1.19M0.0%+195.3%0.003%
5/18/2026 Spyglass Capital Management LLC779,991$44.12M3.1%N/A0.116%
5/18/2026 Amundi5,774,151$326.59M0.1%+83.7%0.860%
5/18/2026 EverSource Wealth Advisors LLC5,011$283K0.0%-57.5%0.001%
5/18/2026 California State Teachers Retirement System903,932$51.13M0.1%-1.1%0.135%
5/18/2026 Readystate Asset Management LP48,000$2.72M0.1%N/A0.007%
5/18/2026 Royal Bank of Canada1,679,652$95.00M0.0%-5.5%0.250%
5/18/2026 Empowered Funds LLC44,122$2.50M0.0%-59.3%0.007%
5/16/2026 The Manufacturers Life Insurance Company35,598$2.01M0.0%-28.1%0.005%
5/16/2026 Maverick Capital Ltd.12,507$707K0.0%-97.6%0.002%
5/16/2026 Quantinno Capital Management LP829,155$46.90M0.1%+18.4%0.123%
5/16/2026 SummitTX Capital L.P.9,224$522K0.0%-51.8%0.001%
5/15/2026 Ardmore Road Asset Management LP125,000$7.07M0.5%N/A0.019%
5/15/2026 OMERS ADMINISTRATION Corp21,926$1.24M0.0%+39.4%0.003%
5/15/2026 Waverly Advisors LLC6,707$379K0.0%-17.9%0.001%
5/15/2026 Entropy Technologies LP77,272$4.37M0.2%-16.7%0.012%
5/14/2026 Dai ichi Life Insurance Company Ltd18,304$1.04M0.0%-3.8%0.003%
5/14/2026 Renaissance Technologies LLC7,126,134$403.05M0.6%+7.5%1.061%
5/14/2026 Public Employees Retirement System of Ohio180,535$10.21M0.0%-3.3%0.027%
5/14/2026 Compound Planning Inc.50,739$2.87M0.1%-4.9%0.008%
5/14/2026 Gavilan Investment Partners LLC310,000$17.53M4.7%N/A0.046%
5/14/2026 Inceptionr LLC6,767$383K0.1%N/A0.001%
5/14/2026 Bank of Nova Scotia348,545$19.71M0.0%-25.0%0.052%
5/14/2026 Sei Investments Co.1,080,310$61.10M0.1%+192.7%0.161%
5/14/2026 Lido Advisors LLC9,663$547K0.0%-4.1%0.001%
5/13/2026 Cetera Investment Advisers58,470$3.31M0.0%+9.6%0.009%
5/13/2026 Militia Capital Management LLC45,800$2.59M0.6%N/A0.007%
5/13/2026 NewEdge Wealth LLC16,450$930K0.0%+30.9%0.002%
5/13/2026 First Trust Advisors LP1,658,189$93.79M0.1%-20.3%0.247%
5/12/2026 Westpac Banking Corp7,078$400K0.0%-73.5%0.001%
5/12/2026 Himension Capital Singapore PTE. LTD.131,274$7.43M0.6%+195.5%0.020%
5/8/2026 PNC Financial Services Group Inc.20,119$1.14M0.0%+42.0%0.003%
5/8/2026Andra AP fonden87,520$4.95M0.1%-42.1%0.013%
5/8/2026 Atlantic Private Wealth LLC618$35K0.0%N/A0.000%
5/8/2026 Amova Asset Management Americas Inc.3,238,160$183.25M2.6%+17.0%0.482%
5/7/2026 Florida Financial Advisors LLC13,130$743K0.2%+14.2%0.002%
5/7/2026 AlTi Global Inc.5,895$333K0.0%-7.0%0.001%
A weekly dividend fund holding Nvidia and Palantir (Ad)

CrowdStrike, Palantir, Nvidia none of them pay a real dividend. But one fund holding the biggest AI names distributes income every single Thursday, with payouts reported as high as $1,051 a month. Chief Income Strategist Tim Plaehn breaks down the fund's real Thursday distribution history, how the income is generated, and how to buy it in any brokerage account.tc pixel

Watch the free presentation before this Thursday's payout
5/7/2026 Earned Wealth Advisors LLC4,520$256K0.0%-55.9%0.001%
5/7/2026 Allen Investment Management LLC216,934$12.27M0.2%+2.2%0.032%
5/7/2026 Hollencrest Capital Management2,087$118K0.0%-58.3%0.000%
5/7/2026 Dimensional Fund Advisors LP716,249$40.49M0.0%+1.5%0.107%
5/7/2026 Parallel Advisors LLC31,160$1.76M0.0%+9.5%0.005%
5/7/2026 KBC Group NV108,808$6.15M0.0%-76.3%0.016%
5/7/2026 SEB Asset Management AB128,324$7.26M0.0%N/A0.019%
5/7/2026 Swiss National Bank1,729,700$97.83M0.1%+8.5%0.258%
5/7/2026 AIA Group Ltd38,247$2.16M0.0%-44.0%0.006%
5/6/2026 Jennison Associates LLC438,326$24.79M0.0%-3.5%0.065%


RBLX Institutional Ownership - Frequently Asked Questions

During the previous two years, 1,014 institutional investors and hedge funds held shares of Roblox. The most heavily invested institutionals were Vanguard Group Inc. ($5.14B), California State Teachers Retirement System ($2.69B), Capital International Investors ($2.59B), FMR LLC ($2.29B), Baillie Gifford & Co. ($1.75B), Morgan Stanley ($1.68B), and Ieq Capital LLC ($1.40B).Learn more on Roblox's institutional investors.

94.46% of Roblox's stock is owned by institutional investors. Learn more on RBLX's institutional investor holdings.

Of the 920 institutional investors that purchased Roblox's stock in the last 24 months, the following investors and hedge funds have bought the highest volume of shares: California State Teachers Retirement System ($48.71M), FMR LLC ($22.83M), Wealthfront Advisers LLC ($17.34M), Norges Bank ($11.60M), Vanguard Group Inc. ($10.68M), ValueAct Holdings L.P. ($9.53M), and AQR Capital Management LLC ($7.55M).

Institutional investors have bought a total of 110,854,391 shares in the last 24 months. This purchase volume represents approximately $8.55B in transactions.

Of the 379 institutional investors that sold Roblox's stock in the last 24 months, the following investors and hedge funds have sold the highest volume of shares: Baillie Gifford & Co. ($4.83M), HMI Capital Management L.P. ($3.42M), Temasek Holdings Private Ltd ($2.92M), Amova Asset Management Americas Inc. ($2.11M), Fred Alger Management LLC ($2.10M), Sumitomo Mitsui Trust Group Inc. ($2.06M), and Price T Rowe Associates Inc. MD ($2.00M).

Institutional investors have sold a total of 55,945,431 shares in the last 24 months. This volume of shares sold represents approximately $5.96B in transactions.



Institutional ownership data for NYSE:RBLX is compiled from quarterly 13F filings submitted to the U.S. Securities and Exchange Commission (SEC), with the most recent received on 9/4/2026. New 13F filings are added each quarter as they're published.
From Our Partners